Baker City Municipal Airport

About
Name: Baker City Municipal Airport
Identifier:  BKE/KBKE
Serves:  Baker City, Oregon
Owner:  Baker City
Public/Private:  Public
Local Time:  25. Aug 02:09 PDT
Description: Baker City Municipal Airport is three miles north of Baker City, in Baker County, Oregon. The National Plan of Integrated Airport Systems for 2011–2015 categorized it as a general aviation facility.
Source: Wikipedia
Location
Runways
Identifier Length (m/ft) Surface
13/31 5,095/5,095 Asphalt
17/35 4,359/4,359 Asphalt
8/26 3,670/3,670 Asphalt
Flights per Day
0 flights
Distance: 475km (295mi)
Punctuality
-100% (0 flights per day delayed)
Delay Average: 30 minutes
Current Weather
 13 C (Humidity: 62%)
  6kt (11km/h / 6mph) from 260°
  16km (10 mi.)
 
 METAR KBKE 250853Z AUTO 26006KT 10SM CLR 13/06 A3001 RMK AO2 SLP133 T01330061 51004

Current Flights

Departures
Number Departure To Airline
Arrivals
Number Arrival From Airline

Current Delays

Departures
N/A
Arrivals
N/A

Destinations

Top Destinations
Airport Flights
per week
Seats
per week
  Redmond (RDM) 0 - 0 0
  Ephrata (EPH) 0 - 0 0
  Portland (PDX) 0 - 0 0
  Jackson (JAC) 0 - 0 0
  Elko (EKO) 0 - 0 0

Airlines & Planes

Top Airlines
Airline Flights
per Day
Seats
per Day
Nordwind Airlines 0 -
  Novair 0 -
Top Plane Types
Model Flights Seats
Beech B200 Super King Air 0.2/day - 0
Beech E90 King Air 0.1/day - 0
Learjet 31A 0.0/day - 0